Bristol, IL

5:02 AM CDT on October 16, 2019 (GMT -0500)
Whispering Meadows | | Change Station
Active Advisory: Flood Warning

Elev 650 ft 41.68 °N, 88.45 °W | Updated 4 seconds ago

Overcast
Overcast
45.7 °F
Feels Like 42 °F
N
7
Wind Variable Wind from WNW
Gusts 8.0 mph

Today
High -- | Low -- °F
--% Chance of Precip.
Yesterday
High -- | Low -- °F
Precip. -- in
Pressure 29.86 in
Visibility 10.0 miles
Clouds Overcast 3000 ft
Windchill 42 °F
Dew Point 36 °F
Humidity 70%
Rainfall 0.00 in
Snow Depth Not available.
7:06 AM 6:11 PM
Waning Gibbous, 94% visible
METAR KARR 160952Z AUTO 30013G24KT 10SM OVC030 08/02 A2985 RMK AO2 PK WND 31027/0928 SLP109 T00780022 TSNO
Pressure 29.86 in
Visibility 10.0 miles
Clouds Overcast 3000 ft
Windchill 42 °F
Dew Point 36 °F
Humidity 70%
Rainfall 0.00 in
Snow Depth Not available.
7:06 AM 6:11 PM
Waning Gibbous, 94% visible
METAR KARR 160952Z AUTO 30013G24KT 10SM OVC030 08/02 A2985 RMK AO2 PK WND 31027/0928 SLP109 T00780022 TSNO

Get Your Daily Forecast Email!

Thanks for signing up!

Be on the lookout for a verification email in your inbox.

You'll start receiving severe weather alerts in your inbox..

×

10-Day Weather Forecast

Almanac

Astronomy

Oct. 16, 2019 Rise Set
Actual Time
Civil Twilight
Nautical Twilight
Astronomical Twilight
Moon
Length of Visible Light
Length of Day
Tomorrow will be .
, % of the Moon is Illuminated

Today's Extremes

State Highs State Lows

Community

WunderPhotos

Category 6

Welcome to Category 6. This is the collective home for Weather Underground's featured writeups by Dr. Jeff Masters (right), Bob Henson (left), Chris Burt, and other regular contributors.

Nearby

Air Quality

  Air Quality AQ Index Pollutant
Not available.

Snow Depth

Station Depth Elevation

Earthquake Activity

City Distance Mag. Time & Date
Minimum magnitude displayed is 2.5.

Coastal Water Temperatures

Place Temperature

Stations

Nearby Weather Stations

Station Location Temp. Windchill Dew Point Humidity Wind Precip. Elev Updated Type
                   

Watches & Warnings

Flood Warning
Issued: 9:07 AM CDT Oct. 14, 2019 – National Weather Service

The Flood Warning continues for
the Fox River at Montgomery, or from Red Gate Road in St. Charles
downstream to Millington.
* Until further notice.
* At 745 am Monday the stage was 13.3 feet.
* Flood stage is 13.0 feet.
* Minor flooding is occurring and minor flooding is forecast.
* Forecast... the river will remain near 13.3 feet.
* Impact... at 13.5 feet... low-lying parking lots at city Hall and Boy
Scout Island are threatened in St. Charles. Fox River trail is
threatened at St. Mary Park in St. Charles.


Lat... Lon 4195 8838 4194 8827 4169 8826 4154 8860
      4163 8860 4173 8838